Time;durP1;ratioP1;P1;durP2;ratioP2;P2;SDS_P1;SDS_P2;PMS_P1;PMS_P2;Temp;Humidity;BMP_temperature;BMP_pressure;BME280_temperature;BME280_humidity;BME280_pressure;Samples;Min_cycle;Max_cycle;Signal;HPM_P1;HPM_P2
2023/10/24 00:00:24;;;;;;;6.90;4.80;;;;;;;11.16;100.00;99856.89;109295;1253;71483;-54
2023/10/24 00:02:52;;;;;;;8.70;5.10;;;;;;;11.17;100.00;99865.49;109275;1253;61779;-54
2023/10/24 00:05:19;;;;;;;6.10;4.30;;;;;;;11.17;100.00;99863.27;109341;1253;60051;-53
2023/10/24 00:07:49;;;;;;;5.60;3.70;;;;;;;11.17;100.00;99865.70;109260;1254;75057;-54
2023/10/24 00:10:17;;;;;;;7.80;3.60;;;;;;;11.18;100.00;99864.73;109408;1254;66911;-53
2023/10/24 00:12:45;;;;;;;5.90;4.00;;;;;;;11.18;100.00;99856.39;109277;1252;71747;-53
2023/10/24 00:15:12;;;;;;;5.20;3.70;;;;;;;11.18;100.00;99859.27;109417;1252;60907;-54
2023/10/24 00:17:40;;;;;;;5.90;3.50;;;;;;;11.18;100.00;99858.80;109258;1253;59166;-56
2023/10/24 00:20:08;;;;;;;6.10;4.00;;;;;;;11.18;100.00;99853.25;109393;1253;74671;-54
2023/10/24 00:22:36;;;;;;;6.80;4.30;;;;;;;11.16;100.00;99853.32;109426;1254;65643;-53
2023/10/24 00:25:05;;;;;;;7.00;4.70;;;;;;;11.15;100.00;99856.73;109142;1254;249166;-54
2023/10/24 00:27:32;;;;;;;6.90;4.50;;;;;;;11.14;100.00;99864.31;109330;1253;59719;-54
2023/10/24 00:30:00;;;;;;;9.60;6.10;;;;;;;11.13;100.00;99865.83;109358;1257;60045;-54
2023/10/24 00:32:27;;;;;;;7.30;4.90;;;;;;;11.13;100.00;99867.11;109396;1252;74843;-54
2023/10/24 00:34:56;;;;;;;8.60;5.30;;;;;;;11.12;100.00;99866.47;109397;1253;66059;-54
2023/10/24 00:37:23;;;;;;;11.90;6.70;;;;;;;11.11;100.00;99866.32;109355;1252;71877;-54
2023/10/24 00:39:51;;;;;;;7.80;5.60;;;;;;;11.09;100.00;99869.27;109350;1253;60924;-54
2023/10/24 00:42:18;;;;;;;6.30;4.50;;;;;;;11.08;100.00;99867.50;109426;1254;60048;-54
2023/10/24 00:44:47;;;;;;;7.10;4.70;;;;;;;11.08;100.00;99867.49;109285;1253;74777;-53
2023/10/24 00:47:14;;;;;;;8.80;4.20;;;;;;;11.09;100.00;99868.14;109396;1254;65658;-54
2023/10/24 00:49:43;;;;;;;7.10;4.20;;;;;;;11.08;100.00;99870.84;109193;1254;72731;-54
2023/10/24 00:52:10;;;;;;;6.20;3.40;;;;;;;11.07;100.00;99872.68;109142;1253;60385;-53
2023/10/24 00:54:38;;;;;;;6.70;3.90;;;;;;;11.08;100.00;99875.89;109162;1252;58919;-54
2023/10/24 00:57:08;;;;;;;6.40;4.20;;;;;;;11.08;100.00;99872.20;109443;1254;74678;-54
2023/10/24 00:59:36;;;;;;;7.70;4.80;;;;;;;11.08;100.00;99872.27;109231;1252;66992;-54
2023/10/24 01:02:04;;;;;;;6.30;4.00;;;;;;;11.06;100.00;99873.60;109147;1256;71500;-54
2023/10/24 01:04:32;;;;;;;6.50;4.40;;;;;;;11.04;100.00;99877.36;109446;1252;59986;-54
2023/10/24 01:06:59;;;;;;;6.20;4.20;;;;;;;11.01;100.00;99875.38;109190;1253;59109;-54
2023/10/24 01:09:27;;;;;;;8.30;4.70;;;;;;;10.99;100.00;99876.42;109358;1253;74767;-54
2023/10/24 01:11:55;;;;;;;6.50;4.00;;;;;;;10.96;100.00;99875.80;109307;1254;66972;-53
2023/10/24 01:14:23;;;;;;;6.70;3.90;;;;;;;10.94;100.00;99881.65;109452;1252;72862;-54
2023/10/24 01:16:50;;;;;;;9.10;4.00;;;;;;;10.92;100.00;99883.65;109107;1254;60412;-54
2023/10/24 01:19:18;;;;;;;7.20;2.80;;;;;;;10.92;100.00;99883.69;109365;1252;60110;-54
2023/10/24 01:21:46;;;;;;;6.10;3.70;;;;;;;10.94;100.00;99888.83;109416;1253;74725;-54
2023/10/24 01:24:14;;;;;;;4.60;2.60;;;;;;;10.98;100.00;99889.13;109402;1253;66844;-53
2023/10/24 01:26:42;;;;;;;7.20;2.90;;;;;;;11.05;100.00;99891.66;109401;1253;73110;-54
2023/10/24 01:29:10;;;;;;;5.10;2.70;;;;;;;11.11;100.00;99890.63;109301;1252;61812;-54
2023/10/24 01:31:37;;;;;;;5.60;2.80;;;;;;;11.18;100.00;99893.58;109334;1252;60107;-54
2023/10/24 01:34:05;;;;;;;3.90;2.40;;;;;;;11.25;100.00;99899.19;109366;1252;74708;-54
2023/10/24 01:36:33;;;;;;;4.00;2.20;;;;;;;11.29;100.00;99898.44;109319;1253;65857;-54
2023/10/24 01:39:00;;;;;;;3.80;2.00;;;;;;;11.33;100.00;99899.54;109178;1251;71056;-55
2023/10/24 01:41:28;;;;;;;4.60;2.50;;;;;;;11.36;100.00;99902.52;109235;1254;60460;-54
2023/10/24 01:43:57;;;;;;;3.80;2.40;;;;;;;11.42;100.00;99899.91;109272;1253;59143;-54
2023/10/24 01:46:25;;;;;;;5.70;2.70;;;;;;;11.46;100.00;99902.37;109267;1252;74754;-54
2023/10/24 01:48:53;;;;;;;4.80;2.60;;;;;;;11.50;100.00;99899.29;109366;1254;65960;-54
2023/10/24 01:51:21;;;;;;;4.20;2.30;;;;;;;11.52;100.00;99901.42;109268;1253;71546;-56
2023/10/24 01:53:48;;;;;;;4.40;2.20;;;;;;;11.53;100.00;99903.36;109277;1253;61694;-54
2023/10/24 01:56:16;;;;;;;4.20;2.20;;;;;;;11.51;100.00;99903.83;109299;1254;60103;-53
2023/10/24 01:58:43;;;;;;;5.50;2.60;;;;;;;11.47;100.00;99911.25;109380;1253;74713;-53
2023/10/24 02:01:11;;;;;;;4.20;2.30;;;;;;;11.46;100.00;99915.59;109208;1254;66947;-54
2023/10/24 02:03:39;;;;;;;3.40;1.90;;;;;;;11.47;100.00;99916.39;109288;1253;71567;-54
2023/10/24 02:06:06;;;;;;;5.50;2.50;;;;;;;11.48;100.00;99923.57;109332;1252;60141;-54
2023/10/24 02:08:34;;;;;;;4.30;2.70;;;;;;;11.49;100.00;99924.95;109306;1252;59018;-54
2023/10/24 02:11:03;;;;;;;3.90;2.30;;;;;;;11.51;100.00;99926.04;109369;1254;72945;-53
2023/10/24 02:13:30;;;;;;;4.00;2.20;;;;;;;11.53;100.00;99924.04;109323;1253;65666;-54
2023/10/24 02:15:58;;;;;;;3.30;1.80;;;;;;;11.54;100.00;99926.52;109342;1252;72729;-53
2023/10/24 02:18:26;;;;;;;3.80;2.00;;;;;;;11.55;100.00;99926.76;109295;1254;60064;-54
2023/10/24 02:20:54;;;;;;;4.70;2.40;;;;;;;11.55;100.00;99927.64;109291;1252;59369;-54
2023/10/24 02:23:21;;;;;;;4.10;2.50;;;;;;;11.55;100.00;99930.77;109335;1254;74701;-56
2023/10/24 02:25:49;;;;;;;3.70;1.70;;;;;;;11.55;100.00;99927.70;109386;1254;65642;-54
2023/10/24 02:28:17;;;;;;;3.20;1.90;;;;;;;11.54;100.00;99928.45;109297;1252;71625;-53
2023/10/24 02:30:45;;;;;;;4.20;2.70;;;;;;;11.54;100.00;99929.90;109348;1253;60053;-53
2023/10/24 02:33:13;;;;;;;4.20;2.30;;;;;;;11.54;100.00;99936.52;109352;1252;58948;-56
2023/10/24 02:35:40;;;;;;;4.80;1.70;;;;;;;11.53;100.00;99938.90;109318;1253;74723;-54
2023/10/24 02:38:08;;;;;;;2.90;1.80;;;;;;;11.52;100.00;99936.20;109373;1252;66800;-54
2023/10/24 02:40:35;;;;;;;4.00;2.20;;;;;;;11.52;100.00;99936.25;109338;1253;71737;-54
2023/10/24 02:43:03;;;;;;;6.40;1.60;;;;;;;11.50;100.00;99935.02;109341;1252;59040;-54
2023/10/24 02:45:30;;;;;;;4.50;2.30;;;;;;;11.48;100.00;99930.11;109297;1253;59416;-54
2023/10/24 02:47:58;;;;;;;16.90;4.70;;;;;;;11.46;100.00;99933.34;109395;1253;74766;-54
2023/10/24 02:50:25;;;;;;;5.20;2.40;;;;;;;11.44;100.00;99931.48;109358;1252;66946;-54
2023/10/24 02:52:53;;;;;;;3.40;2.00;;;;;;;11.41;100.00;99933.92;109350;1252;72580;-54
2023/10/24 02:55:21;;;;;;;4.10;2.50;;;;;;;11.38;100.00;99934.99;109342;1252;61669;-55
2023/10/24 02:57:48;;;;;;;3.20;1.60;;;;;;;11.37;100.00;99939.52;109210;1252;59382;-54
2023/10/24 03:00:16;;;;;;;4.70;2.70;;;;;;;11.36;100.00;99941.76;109393;1252;74740;-54
2023/10/24 03:02:44;;;;;;;4.00;2.30;;;;;;;11.32;100.00;99941.64;109440;1252;66026;-54
2023/10/24 03:05:11;;;;;;;4.70;2.60;;;;;;;11.30;100.00;99944.64;109221;1252;71435;-54
2023/10/24 03:07:39;;;;;;;5.50;2.70;;;;;;;11.27;100.00;99943.58;109248;1252;61685;-56
2023/10/24 03:10:07;;;;;;;4.70;2.40;;;;;;;11.25;100.00;99941.73;109385;1252;60446;-54
2023/10/24 03:12:36;;;;;;;3.70;2.40;;;;;;;11.22;100.00;99946.33;109393;1252;74605;-54
2023/10/24 03:15:05;;;;;;;4.30;2.50;;;;;;;11.15;100.00;99945.06;109404;1252;66766;-54
2023/10/24 03:17:33;;;;;;;4.70;2.70;;;;;;;11.07;100.00;99946.11;109316;1253;71885;-56
2023/10/24 03:20:02;;;;;;;5.90;3.10;;;;;;;10.98;100.00;99947.39;109267;1252;62494;-54
2023/10/24 03:22:30;;;;;;;3.80;2.20;;;;;;;10.89;100.00;99949.27;109427;1252;58928;-53
2023/10/24 03:24:58;;;;;;;4.00;2.30;;;;;;;10.78;100.00;99947.84;109362;1252;74735;-54
2023/10/24 03:27:25;;;;;;;4.00;2.40;;;;;;;10.67;100.00;99951.46;109375;1252;66207;-53
2023/10/24 03:29:54;;;;;;;3.90;2.30;;;;;;;10.56;100.00;99953.15;109251;1254;72729;-54
2023/10/24 03:32:22;;;;;;;4.50;2.60;;;;;;;10.45;100.00;99953.80;109372;1253;60468;-54
2023/10/24 03:34:49;;;;;;;5.60;2.60;;;;;;;10.33;100.00;99958.32;109293;1253;60111;-53
2023/10/24 03:37:19;;;;;;;5.00;2.20;;;;;;;10.21;100.00;99964.44;109408;1252;74733;-53
2023/10/24 03:39:47;;;;;;;4.70;2.40;;;;;;;10.09;100.00;99966.73;109308;1253;65805;-54
2023/10/24 03:42:15;;;;;;;5.30;3.00;;;;;;;9.97;100.00;99969.95;109396;1253;73457;-54
2023/10/24 03:44:42;;;;;;;5.10;2.50;;;;;;;9.85;100.00;99971.80;109337;1253;60880;-54
2023/10/24 03:47:10;;;;;;;4.10;2.20;;;;;;;9.73;100.00;99977.20;109247;1253;59037;-53
2023/10/24 03:49:38;;;;;;;4.20;2.70;;;;;;;9.63;100.00;99982.41;109222;1252;73142;-55
2023/10/24 03:52:06;;;;;;;5.70;3.10;;;;;;;9.53;100.00;99982.83;109388;1252;65974;-54
2023/10/24 03:54:33;;;;;;;4.10;2.30;;;;;;;9.44;100.00;99980.13;109299;1254;71388;-54
2023/10/24 03:57:01;;;;;;;6.40;2.80;;;;;;;9.34;100.00;99983.17;109366;1252;61863;-53
2023/10/24 03:59:28;;;;;;;4.00;2.20;;;;;;;9.26;100.00;99986.02;109400;1251;59423;-54
2023/10/24 04:01:56;;;;;;;4.30;2.10;;;;;;;9.21;100.00;99989.05;109376;1253;74738;-54
2023/10/24 04:04:24;;;;;;;4.70;1.70;;;;;;;9.17;100.00;99993.90;109402;1251;65954;-54
2023/10/24 04:06:51;;;;;;;3.70;2.30;;;;;;;9.12;100.00;99997.75;109284;1253;72752;-54
2023/10/24 04:09:19;;;;;;;5.80;2.20;;;;;;;9.10;100.00;99996.46;109332;1252;59365;-54
2023/10/24 04:12:05;;;;;;;4.70;2.10;;;;;;;9.07;100.00;100005.45;109380;1252;60122;-55
2023/10/24 04:14:33;;;;;;;4.00;2.10;;;;;;;9.04;100.00;100010.13;109389;1252;74687;-54
2023/10/24 04:17:00;;;;;;;4.80;2.30;;;;;;;9.03;100.00;100010.41;109305;1253;67114;-53
2023/10/24 04:19:28;;;;;;;5.20;1.90;;;;;;;9.04;100.00;100017.65;109305;1252;72797;-56
2023/10/24 04:21:56;;;;;;;2.80;1.70;;;;;;;9.08;100.00;100020.46;109250;1254;59265;-54
2023/10/24 04:24:23;;;;;;;3.40;1.70;;;;;;;9.15;100.00;100021.52;109391;1252;60141;-54
2023/10/24 04:26:51;;;;;;;3.30;1.70;;;;;;;9.24;100.00;100026.20;109405;1252;74653;-53
2023/10/24 04:29:18;;;;;;;8.80;2.20;;;;;;;9.36;100.00;100026.73;109412;1252;65624;-54
2023/10/24 04:31:46;;;;;;;3.40;1.60;;;;;;;9.54;100.00;100032.13;109283;1252;71450;-54
2023/10/24 04:34:13;;;;;;;3.90;2.00;;;;;;;9.77;100.00;100032.79;109278;1252;60520;-54
2023/10/24 04:36:41;;;;;;;3.60;1.80;;;;;;;10.02;100.00;100033.54;109293;1252;60121;-53
2023/10/24 04:39:09;;;;;;;3.50;1.50;;;;;;;10.31;100.00;100035.09;109376;1252;74733;-54
2023/10/24 04:41:37;;;;;;;3.30;1.40;;;;;;;10.60;100.00;100035.30;109428;1252;67146;-54
2023/10/24 04:44:04;;;;;;;3.40;1.60;;;;;;;10.83;100.00;100044.66;109365;1253;72739;-56
2023/10/24 04:46:32;;;;;;;3.20;1.50;;;;;;;10.98;100.00;100044.65;109350;1251;60395;-54
2023/10/24 04:48:59;;;;;;;3.00;1.60;;;;;;;11.07;100.00;100044.55;109344;1252;60046;-54
2023/10/24 04:51:27;;;;;;;2.60;1.40;;;;;;;11.14;100.00;100047.40;109412;1252;73763;-54
2023/10/24 04:53:55;;;;;;;2.80;1.50;;;;;;;11.20;100.00;100047.92;109402;1252;66985;-54
2023/10/24 04:56:22;;;;;;;4.00;1.40;;;;;;;11.26;100.00;100052.45;109354;1252;72661;-55
2023/10/24 04:58:50;;;;;;;3.00;1.30;;;;;;;11.31;100.00;100052.23;109392;1252;62085;-55
2023/10/24 05:01:18;;;;;;;4.30;1.50;;;;;;;11.37;100.00;100050.70;109367;1252;58871;-54
2023/10/24 05:03:46;;;;;;;4.20;1.20;;;;;;;11.42;100.00;100050.34;109425;1252;74832;-54
2023/10/24 05:06:14;;;;;;;3.00;1.40;;;;;;;11.49;100.00;100053.34;109273;1256;66458;-57
2023/10/24 05:08:41;;;;;;;3.40;1.10;;;;;;;11.56;100.00;100052.11;109377;1252;71378;-54
2023/10/24 05:11:09;;;;;;;3.00;1.10;;;;;;;11.63;100.00;100049.33;109337;1252;61732;-55
2023/10/24 05:13:36;;;;;;;1.80;0.70;;;;;;;11.70;100.00;100043.90;109309;1252;58930;-54
2023/10/24 05:16:04;;;;;;;1.60;0.70;;;;;;;11.80;100.00;100035.34;109335;1252;74848;-54
2023/10/24 05:18:32;;;;;;;2.10;1.10;;;;;;;11.88;100.00;100037.60;109337;1252;65726;-55
2023/10/24 05:20:59;;;;;;;2.80;1.30;;;;;;;11.98;100.00;100034.73;109349;1252;73158;-54
2023/10/24 05:23:29;;;;;;;2.70;0.80;;;;;;;12.09;100.00;100040.99;109283;1252;59991;-55
2023/10/24 05:25:57;;;;;;;2.80;1.40;;;;;;;12.21;100.00;100038.64;109332;1252;59459;-56
2023/10/24 05:28:25;;;;;;;3.40;1.50;;;;;;;12.29;100.00;100039.94;109336;1252;74729;-54
2023/10/24 05:30:52;;;;;;;3.20;1.70;;;;;;;12.38;100.00;100040.51;109379;1252;66345;-55
2023/10/24 05:33:20;;;;;;;4.30;1.70;;;;;;;12.48;100.00;100038.22;109394;1252;72742;-55
2023/10/24 05:35:48;;;;;;;3.50;1.60;;;;;;;12.59;100.00;100037.83;109358;1252;60786;-56
2023/10/24 05:38:15;;;;;;;3.60;1.50;;;;;;;12.74;100.00;100035.97;109419;1252;59621;-54
2023/10/24 05:40:46;;;;;;;2.70;1.30;;;;;;;12.97;100.00;100035.94;109278;1252;74925;-54
2023/10/24 05:43:14;;;;;;;3.10;1.70;;;;;;;13.22;100.00;100031.08;109368;1252;65114;-54
2023/10/24 05:45:41;;;;;;;2.70;1.30;;;;;;;13.41;100.00;100030.42;109224;1253;72713;-54
2023/10/24 05:48:09;;;;;;;4.60;1.60;;;;;;;13.58;100.00;100022.55;109184;1253;59840;-57
2023/10/24 05:50:39;;;;;;;3.90;1.70;;;;;;;13.74;100.00;100021.55;109264;1253;59503;-54
2023/10/24 05:53:06;;;;;;;3.40;1.60;;;;;;;13.91;100.00;100023.59;109444;1253;74683;-55
2023/10/24 05:55:34;;;;;;;3.90;1.90;;;;;;;14.10;100.00;100023.12;109408;1254;66925;-55
2023/10/24 05:58:01;;;;;;;4.00;2.00;;;;;;;14.26;100.00;100021.04;109432;1253;72848;-55
2023/10/24 06:00:29;;;;;;;3.70;1.80;;;;;;;14.49;100.00;100018.21;109320;1252;61811;-55
2023/10/24 06:02:56;;;;;;;4.20;2.40;;;;;;;14.74;100.00;100014.73;109355;1252;58938;-55
2023/10/24 06:05:24;;;;;;;3.10;1.70;;;;;;;15.02;100.00;100007.24;109292;1252;74730;-55
2023/10/24 06:07:51;;;;;;;3.20;1.60;;;;;;;15.28;100.00;100002.91;109364;1252;66995;-55
2023/10/24 06:10:19;;;;;;;4.10;2.10;;;;;;;15.56;100.00;99999.99;109350;1252;72436;-57
2023/10/24 06:12:47;;;;;;;6.80;3.40;;;;;;;15.86;100.00;99999.38;109307;1255;60629;-55
2023/10/24 06:15:14;;;;;;;5.90;3.20;;;;;;;16.07;100.00;99993.09;109281;1252;59001;-55
2023/10/24 06:17:42;;;;;;;5.20;2.70;;;;;;;16.24;100.00;99992.70;109359;1252;74760;-55
2023/10/24 06:20:10;;;;;;;3.90;2.20;;;;;;;16.52;100.00;99987.61;109304;1252;65505;-55
2023/10/24 06:22:37;;;;;;;3.50;1.60;;;;;;;16.82;100.00;99989.73;109311;1252;72493;-55
2023/10/24 06:25:05;;;;;;;3.40;1.90;;;;;;;16.96;100.00;99982.40;109309;1253;60302;-55
2023/10/24 06:27:33;;;;;;;3.40;1.90;;;;;;;16.96;100.00;99986.34;109314;1254;60045;-55
2023/10/24 06:30:00;;;;;;;3.00;1.60;;;;;;;16.97;100.00;99988.64;109329;1253;74699;-55
2023/10/24 06:32:28;;;;;;;4.60;2.00;;;;;;;17.00;100.00;99989.29;109273;1252;65842;-56
2023/10/24 06:34:55;;;;;;;3.10;1.80;;;;;;;17.01;100.00;99989.56;109315;1252;71406;-55
2023/10/24 06:37:23;;;;;;;3.30;1.40;;;;;;;17.00;100.00;99997.95;109370;1252;60166;-54
2023/10/24 06:39:51;;;;;;;4.00;2.20;;;;;;;16.87;100.00;100001.83;109367;1252;59284;-54
2023/10/24 06:42:18;;;;;;;3.60;2.40;;;;;;;16.73;100.00;99999.47;109343;1252;72804;-57
2023/10/24 06:44:46;;;;;;;5.00;2.70;;;;;;;16.63;100.00;100002.95;109350;1252;65616;-54
2023/10/24 06:47:13;;;;;;;3.30;2.30;;;;;;;16.59;100.00;100009.15;109320;1252;72713;-55
2023/10/24 06:49:41;;;;;;;4.30;2.20;;;;;;;16.51;100.00;100006.27;109309;1252;60116;-54
2023/10/24 06:52:09;;;;;;;2.90;1.60;;;;;;;16.44;100.00;100009.05;109349;1252;60147;-54
2023/10/24 06:54:36;;;;;;;3.50;1.30;;;;;;;16.34;100.00;100014.92;109326;1252;73440;-55
2023/10/24 06:57:04;;;;;;;2.60;1.40;;;;;;;16.21;100.00;100019.95;109365;1252;67027;-54
2023/10/24 06:59:32;;;;;;;4.30;1.50;;;;;;;16.08;100.00;100017.50;109382;1252;73107;-55
2023/10/24 07:01:59;;;;;;;3.10;1.40;;;;;;;15.94;100.00;100018.60;109375;1252;60162;-54
2023/10/24 07:04:27;;;;;;;2.70;1.40;;;;;;;15.80;100.00;100019.31;109338;1252;59027;-57
2023/10/24 07:06:54;;;;;;;3.10;1.60;;;;;;;15.64;100.00;100019.88;109356;1252;74656;-54
2023/10/24 07:09:22;;;;;;;2.40;1.30;;;;;;;15.52;100.00;100017.46;109336;1252;65714;-55
2023/10/24 07:11:49;;;;;;;4.60;1.30;;;;;;;15.45;100.00;100017.27;109388;1252;71414;-55
2023/10/24 07:14:17;;;;;;;3.30;1.40;;;;;;;15.36;100.00;100021.61;109334;1253;58941;-57
2023/10/24 07:16:44;;;;;;;3.30;1.10;;;;;;;15.27;100.00;100023.36;109317;1252;60128;-55
2023/10/24 07:19:12;;;;;;;1.70;0.90;;;;;;;15.20;100.00;100025.40;109306;1252;74757;-55
2023/10/24 07:21:40;;;;;;;3.80;1.20;;;;;;;15.08;100.00;100035.65;109394;1252;66939;-55
2023/10/24 07:24:08;;;;;;;1.90;0.80;;;;;;;14.96;100.00;100028.94;109364;1252;72195;-56
2023/10/24 07:26:35;;;;;;;1.40;0.60;;;;;;;14.84;100.00;100034.58;109338;1252;60658;-55
2023/10/24 07:29:03;;;;;;;3.70;1.00;;;;;;;14.76;100.00;100031.08;109295;1252;59053;-55
2023/10/24 07:31:31;;;;;;;2.10;1.20;;;;;;;14.72;100.00;100032.27;109278;1253;74758;-55
2023/10/24 07:33:59;;;;;;;4.00;1.20;;;;;;;14.71;100.00;100037.30;109304;1253;66972;-55
2023/10/24 07:36:30;;;;;;;3.00;1.40;;;;;;;14.69;100.00;100033.06;109257;1252;72667;-55
2023/10/24 07:39:00;;;;;;;2.60;1.40;;;;;;;14.65;100.00;100032.95;109337;1252;59196;-55
2023/10/24 07:41:28;;;;;;;2.30;1.00;;;;;;;14.60;100.00;100031.86;109303;1252;60136;-56
2023/10/24 07:43:55;;;;;;;2.90;1.00;;;;;;;14.57;100.00;100036.64;109256;1253;73513;-56
2023/10/24 07:46:23;;;;;;;2.50;1.00;;;;;;;14.56;100.00;100037.02;109298;1253;65633;-54
2023/10/24 07:48:52;;;;;;;2.30;1.00;;;;;;;14.60;100.00;100040.24;109260;1252;72781;-55
2023/10/24 07:51:20;;;;;;;2.70;1.20;;;;;;;14.66;100.00;100045.82;109269;1254;58995;-55
2023/10/24 07:53:48;;;;;;;2.60;1.10;;;;;;;14.72;100.00;100048.02;109305;1252;58930;-55
2023/10/24 07:56:15;;;;;;;3.90;1.60;;;;;;;14.73;100.00;100051.96;109249;1253;74852;-56
2023/10/24 07:58:43;;;;;;;3.60;1.40;;;;;;;14.67;100.00;100050.00;109351;1252;67338;-55
2023/10/24 08:01:10;;;;;;;4.20;2.30;;;;;;;14.60;100.00;100055.34;109330;1253;72725;-56
2023/10/24 08:03:38;;;;;;;6.00;4.00;;;;;;;14.57;100.00;100054.92;109271;1254;59693;-56
2023/10/24 08:06:06;;;;;;;8.50;5.60;;;;;;;14.53;100.00;100059.11;109249;1252;58910;-56
2023/10/24 08:08:34;;;;;;;5.70;3.60;;;;;;;14.50;100.00;100061.73;109269;1252;74072;-55
2023/10/24 08:11:02;;;;;;;6.00;3.20;;;;;;;14.48;100.00;100066.67;109311;1253;65766;-54
2023/10/24 08:13:30;;;;;;;5.10;3.10;;;;;;;14.44;100.00;100064.91;109291;1252;71427;-55
2023/10/24 08:16:00;;;;;;;5.50;2.40;;;;;;;14.41;100.00;100064.78;109300;1253;59008;-55
2023/10/24 08:18:28;;;;;;;6.40;2.90;;;;;;;14.34;100.00;100068.29;109267;1252;58859;-55
2023/10/24 08:20:56;;;;;;;8.50;4.90;;;;;;;14.32;100.00;100068.27;109316;1253;73457;-55
2023/10/24 08:23:23;;;;;;;8.90;5.40;;;;;;;14.33;100.00;100066.85;109358;1252;64984;-55
2023/10/24 08:25:51;;;;;;;9.50;5.50;;;;;;;14.35;100.00;100067.83;109354;1252;71100;-55
2023/10/24 08:28:18;;;;;;;7.80;4.00;;;;;;;14.36;100.00;100068.23;109372;1252;61881;-57
2023/10/24 08:30:46;;;;;;;7.90;4.00;;;;;;;14.38;100.00;100062.98;109377;1252;60920;-55
2023/10/24 08:33:15;;;;;;;8.40;4.50;;;;;;;14.38;100.00;100065.41;109391;1253;74040;-55
2023/10/24 08:35:44;;;;;;;7.40;3.70;;;;;;;14.41;100.00;100071.11;109300;1252;66198;-55
2023/10/24 08:38:12;;;;;;;6.70;3.80;;;;;;;14.47;100.00;100070.31;109197;1252;73328;-55
2023/10/24 08:40:40;;;;;;;8.80;4.80;;;;;;;14.54;100.00;100073.31;109369;1252;59419;-55
2023/10/24 08:43:10;;;;;;;6.90;3.40;;;;;;;14.57;100.00;100065.16;109416;1252;58987;-54
2023/10/24 08:45:38;;;;;;;4.60;2.70;;;;;;;14.57;100.00;100065.78;109298;1252;73438;-55
2023/10/24 08:48:06;;;;;;;4.60;2.20;;;;;;;14.60;100.00;100062.36;109284;1252;67012;-55
2023/10/24 08:50:33;;;;;;;2.80;1.40;;;;;;;14.66;100.00;100056.84;109398;1252;73162;-57
2023/10/24 08:53:01;;;;;;;2.80;1.20;;;;;;;14.74;100.00;100058.27;109376;1252;59640;-55
2023/10/24 08:55:29;;;;;;;2.90;1.10;;;;;;;14.85;100.00;100059.86;109211;1253;59007;-55
2023/10/24 08:57:57;;;;;;;2.90;1.10;;;;;;;14.93;100.00;100058.73;109256;1252;76934;-55
2023/10/24 09:00:25;;;;;;;3.00;1.20;;;;;;;14.99;100.00;100057.88;109381;1253;66980;-55
2023/10/24 09:02:52;;;;;;;3.60;1.60;;;;;;;15.04;100.00;100056.61;109073;1253;72733;-55
2023/10/24 09:05:20;;;;;;;3.30;1.50;;;;;;;15.07;100.00;100047.86;109243;1252;60130;-55
2023/10/24 09:07:48;;;;;;;3.00;1.70;;;;;;;15.13;100.00;100046.14;109243;1251;59760;-54
2023/10/24 09:10:15;;;;;;;2.80;1.40;;;;;;;15.24;100.00;100046.63;109372;1252;73455;-54
2023/10/24 09:12:43;;;;;;;2.90;1.30;;;;;;;15.35;100.00;100045.54;109395;1251;66988;-56
2023/10/24 09:15:10;;;;;;;3.50;1.40;;;;;;;15.43;100.00;100042.86;109481;1251;74607;-55
2023/10/24 09:17:38;;;;;;;2.50;1.30;;;;;;;15.53;100.00;100043.15;109413;1251;60540;-55
2023/10/24 09:20:06;;;;;;;2.90;1.30;;;;;;;15.66;100.00;100041.84;109549;1251;59812;-55
2023/10/24 09:22:35;;;;;;;2.40;1.10;;;;;;;15.80;100.00;100044.63;109480;1251;74928;-55
2023/10/24 09:25:04;;;;;;;2.50;1.10;;;;;;;15.90;100.00;100043.65;109449;1251;65286;-55
2023/10/24 09:27:32;;;;;;;4.10;1.60;;;;;;;16.00;100.00;100038.61;109419;1252;75114;-55
2023/10/24 09:30:07;;;;;;;2.90;1.70;;;;;;;16.10;100.00;100042.80;109333;1252;60304;-55
2023/10/24 09:32:35;;;;;;;4.20;1.60;;;;;;;16.19;100.00;100040.33;109434;1252;59010;-55
2023/10/24 09:35:03;;;;;;;3.00;1.10;;;;;;;16.22;100.00;100039.16;109409;1252;75899;-55
2023/10/24 09:37:31;;;;;;;2.40;1.20;;;;;;;16.21;100.00;100038.59;109434;1253;66008;-55
2023/10/24 09:39:59;;;;;;;3.40;1.50;;;;;;;16.18;100.00;100037.48;109272;1252;71409;-54
2023/10/24 09:42:31;;;;;;;3.50;2.00;;;;;;;16.07;100.00;100038.35;109383;1252;60146;-55
2023/10/24 09:45:05;;;;;;;3.70;1.80;;;;;;;15.96;100.00;100035.16;109417;1252;59212;-55
2023/10/24 09:47:34;;;;;;;3.50;2.00;;;;;;;15.84;100.00;100032.40;109538;1251;74653;-54
2023/10/24 09:50:03;;;;;;;3.00;1.60;;;;;;;15.70;100.00;100031.33;109405;1250;67841;-54
2023/10/24 09:52:31;;;;;;;3.60;1.90;;;;;;;15.56;100.00;100031.30;109491;1251;72703;-55
2023/10/24 09:54:59;;;;;;;3.90;2.00;;;;;;;15.47;100.00;100026.52;109424;1251;60061;-55
2023/10/24 09:57:27;;;;;;;3.50;2.00;;;;;;;15.41;100.00;100027.30;109478;1251;60034;-55
2023/10/24 09:59:55;;;;;;;4.40;2.50;;;;;;;15.35;100.00;100029.70;109497;1250;73408;-55
2023/10/24 10:02:23;;;;;;;3.50;1.60;;;;;;;15.28;100.00;100027.52;109373;1250;66056;-55
2023/10/24 10:04:50;;;;;;;4.00;1.40;;;;;;;15.19;100.00;100023.33;109465;1251;71158;-56
2023/10/24 10:07:20;;;;;;;2.70;1.30;;;;;;;15.12;100.00;100023.28;109493;1254;60107;-55
2023/10/24 10:09:51;;;;;;;3.30;1.60;;;;;;;15.07;100.00;100025.44;109543;1251;60555;-55
2023/10/24 10:12:18;;;;;;;2.70;1.70;;;;;;;15.05;100.00;100027.23;109504;1250;73980;-55
2023/10/24 10:15:36;;;;;;;3.30;1.70;;;;;;;15.05;100.00;100027.86;109476;1251;69092;-56
2023/10/24 10:18:28;;;;;;;3.70;2.00;;;;;;;15.08;100.00;100023.73;109530;1251;72756;-55
2023/10/24 10:21:00;;;;;;;4.90;1.80;;;;;;;15.11;100.00;100017.05;109343;1253;58999;-55
2023/10/24 10:23:45;;;;;;;3.10;1.60;;;;;;;15.12;100.00;100018.34;109183;1252;60109;-56
2023/10/24 10:26:40;;;;;;;2.70;1.30;;;;;;;15.12;100.00;100019.25;109221;1253;75113;-56
2023/10/24 10:29:08;;;;;;;2.70;1.40;;;;;;;15.17;100.00;100019.59;109248;1252;67439;-57
2023/10/24 10:31:35;;;;;;;2.40;1.20;;;;;;;15.24;100.00;100017.95;109322;1253;73136;-57
2023/10/24 10:34:35;;;;;;;3.30;1.60;;;;;;;15.25;100.00;100018.41;109300;1252;59166;-57
2023/10/24 10:37:04;;;;;;;4.00;1.30;;;;;;;15.27;100.00;100017.15;109286;1252;60208;-56
2023/10/24 10:39:32;;;;;;;2.20;1.00;;;;;;;15.28;100.00;100022.86;109331;1251;73440;-54
2023/10/24 10:42:00;;;;;;;2.70;1.20;;;;;;;15.29;100.00;100022.34;109525;1251;67157;-55
2023/10/24 10:44:33;;;;;;;4.30;1.70;;;;;;;15.25;100.00;100027.87;109496;1251;74916;-55
2023/10/24 10:47:05;;;;;;;2.70;1.30;;;;;;;15.21;100.00;100027.27;109320;1252;59115;-55
2023/10/24 10:49:50;;;;;;;3.10;1.30;;;;;;;15.16;100.00;100025.08;109311;1252;58907;-56
2023/10/24 10:52:44;;;;;;;4.00;2.10;;;;;;;15.07;100.00;100029.69;109339;1253;74697;-55
2023/10/24 10:55:50;;;;;;;4.80;2.50;;;;;;;14.98;100.00;100034.73;109278;1253;67181;-55
2023/10/24 10:58:23;;;;;;;8.10;4.10;;;;;;;14.91;100.00;100037.88;109217;1253;72661;-55
2023/10/24 11:01:03;;;;;;;6.90;3.40;;;;;;;14.85;100.00;100042.22;109305;1252;60132;-55
2023/10/24 11:03:44;;;;;;;5.10;2.40;;;;;;;14.75;100.00;100047.23;109311;1252;59039;-59
2023/10/24 11:06:14;;;;;;;3.10;2.00;;;;;;;14.64;100.00;100041.52;109368;1252;75934;-55
2023/10/24 11:09:06;;;;;;;4.70;3.00;;;;;;;14.56;100.00;100039.48;109340;1252;66828;-55
2023/10/24 11:11:34;;;;;;;10.10;6.90;;;;;;;14.52;100.00;100048.34;109312;1252;71374;-55
2023/10/24 11:14:19;;;;;;;6.10;4.60;;;;;;;14.55;100.00;100045.17;109337;1252;62658;-56
2023/10/24 11:16:48;;;;;;;4.00;2.10;;;;;;;14.63;100.00;100047.21;109284;1252;60364;-56
2023/10/24 11:19:22;;;;;;;5.70;4.70;;;;;;;14.77;100.00;100039.02;109324;1253;74476;-55